WFLO2: Webbers Falls Lock & Dam & Reservoir (L&D 16)

Data processed at Thu Jan 23 2020 21:55


All information presented herein is the property of the government of the United States of America and may be revised or deleted at any time without prior notice.
Dissemination of this information without the expressed written consent of the Public Affairs Office, Tulsa District U.S. Army Corps of Engineers is strictly prohibited.
These data are gathered electronically and, as presented, have not undergone any form of quality control. These data are not guaranteed to be valid or correct.
Go to home page.
Go to station list.
Go to home page.

Upstream stations:

Downstream station:
Previous Day
Next Day
Current Day
    
SHEF ID:       WFLO2     Webbers Falls LD16
STATION TYPE:  NAVIGATION LOCK
Navigation Pool:  Bottom =   487.00, Top =   490.00

               PRECIP ELEVATION   STORAGE   TW-ELEV    INFLOW   RELEASE  AIR-TEMP  WIND-DIRWIND-SPEED REL-HUMID SOLAR-RAD   VOLTAGE  BAT-LOAD
                   in        ft     ac-ft        ft       cfs       cfs         F       deg       mph         %      W/m2      volt      volt
              Ccp-Rev   Ccp-Rev   Ccp-Rev   Ccp-Rev  Rev-Regi  Rev-Regi   Ccp-Rev   Ccp-Rev   Ccp-Rev   Ccp-Rev   Ccp-Rev   Ccp-Rev   Ccp-Rev
(US/Central)
01/23 00:00      0.00    490.75    179197    463.62     63702     62148     32.83    149.30     10.30     99.80      0.00     13.22     12.97
01/23 01:00      0.00    490.77    179440    463.64     62523     62125     32.95    147.40      8.90     99.84      0.00     13.22     12.97
01/23 02:00      0.02    490.78    179561    463.60     62978     62600     32.92    149.60      7.20     99.86      0.00     13.22     12.97
01/23 03:00      0.00    490.75    179197    463.72     62846     62125     32.86    139.90      5.90     99.89      0.00     13.22     12.97
01/23 04:00      0.00    490.75    179197    463.73     63013     64425     32.77    141.50      5.30     99.93      0.00     13.22     12.97
01/23 05:00      0.01    490.74    179076    463.71     63179     64425     32.65    141.20      5.50     99.95      0.00     13.22     12.97
01/23 06:00      0.00    490.75    179197    463.71     64814     64425     32.65    137.80      4.40     99.96      0.00     13.22     12.97
01/23 07:00      0.00    490.75    179197    463.75     64814     64900     32.74    144.90      4.80     99.97      0.00     13.22     12.97
01/23 08:00      0.00    490.76    179319    463.69     65514     64425     32.99    144.50      4.20    100.01      0.00     13.22     12.97
01/23 09:00      0.00    490.76    179319    463.75     62691     64425     33.39    169.70      2.00    100.04      0.00     13.22     12.97
01/23 10:00      0.00    490.75    179197    463.87     65938     67925     33.80    165.10      1.90    100.07     26.10     13.23     12.97
01/23 11:00      0.00    490.64    177863    463.90     66638     67925     34.36    151.60      3.50    100.10     74.90     13.23     12.97
01/23 12:00      0.00    490.73    178955    463.92     67631     67925     35.64    159.50      2.00    100.13     81.90     13.23     12.81
01/23 13:00      0.00    490.74    179076    463.93     68512     67925     37.96    330.60      1.60    100.06    132.20     13.23     12.97
01/23 14:00      0.00    490.75    179197    463.92     72328     67925     39.70    352.50      0.90     99.77    102.00     13.23     12.97
01/23 15:00      0.00    490.77    179440    463.89     69686     67925     41.95    327.80      2.70     97.28    225.60     13.23     12.97
01/23 16:00      0.00    490.79    179683    463.88     69393     67925     45.16    311.90      3.80     82.24    306.70     13.23     12.97
01/23 17:00      0.00    490.79    179683    463.91     68219     67925     46.89    308.60      6.00     63.83    115.40     13.22     12.97
01/23 18:00      0.00    490.79    179683    463.94     66164     67925     45.99    257.80      2.40     65.64      0.70     13.22     12.97
01/23 19:00      0.00    490.76    179319    463.92     64696     67925     44.91    239.60      3.20     67.41      0.00     13.22     12.97
01/23 20:00      0.00    490.71    178712    463.85     62641     67925     44.38    261.50      3.70     68.32      0.00     13.22     12.97
01/23 21:00      0.00    490.71    178712    463.82      ----     67925     42.15    318.10     12.50     77.62      0.00     13.22     12.97
01/23 22:00      ----      ----      ----      ----      ----      ----      ----      ----      ----      ----      ----      ----      ----
01/23 23:00      ----      ----      ----      ----      ----      ----      ----      ----      ----      ----      ----      ----      ----